createdAt,value
2022-08-09T00:00:19.675Z,102351.09
2022-08-09T00:02:49.864Z,102350.31
2022-08-09T00:06:18.099Z,102353.03
2022-08-09T00:08:10.017Z,102347.00
2022-08-09T00:10:40.965Z,102348.81
2022-08-09T00:13:17.289Z,102338.34
2022-08-09T00:15:59.066Z,102341.97
2022-08-09T00:18:35.847Z,102344.69
2022-08-09T00:21:07.709Z,102341.22
2022-08-09T00:23:56.394Z,102340.44
2022-08-09T00:26:32.976Z,102344.00
2022-08-09T00:29:03.803Z,102335.34
2022-08-09T00:31:59.106Z,102350.25
2022-08-09T00:34:26.421Z,102346.03
2022-08-09T00:36:54.405Z,102345.19
2022-08-09T00:40:14.160Z,102346.94
2022-08-09T00:44:13.639Z,102356.56
2022-08-09T00:44:58.127Z,102348.00
2022-08-09T00:47:25.470Z,102341.00
2022-08-09T00:49:55.216Z,102349.72
2022-08-09T00:52:28.303Z,102346.28
2022-08-09T00:55:01.821Z,102338.47
2022-08-09T00:57:34.331Z,102349.88
2022-08-09T01:00:20.621Z,102347.28
2022-08-09T01:02:53.714Z,102347.34
2022-08-09T01:05:54.489Z,102347.38
2022-08-09T01:08:28.085Z,102343.97
2022-08-09T01:11:24.020Z,102346.66
2022-08-09T01:14:03.929Z,102350.22
2022-08-09T01:16:47.452Z,102342.41
2022-08-09T01:19:51.551Z,102338.09
2022-08-09T01:22:42.181Z,102345.19
2022-08-09T01:25:24.129Z,102347.00
2022-08-09T01:27:57.042Z,102352.38
2022-08-09T01:30:35.384Z,102357.72
2022-08-09T01:33:06.755Z,102349.00
2022-08-09T01:35:53.363Z,102357.78
2022-08-09T01:38:26.139Z,102357.88
2022-08-09T01:41:05.798Z,102359.72
2022-08-09T01:43:50.846Z,102365.03
2022-08-09T01:46:24.779Z,102366.78
2022-08-09T01:48:57.316Z,102363.34
2022-08-09T01:51:32.149Z,102359.09
2022-08-09T01:54:02.095Z,102353.03
2022-08-09T01:56:33.323Z,102357.47
2022-08-09T01:59:06.003Z,102354.13
2022-08-09T02:01:59.670Z,102357.63
2022-08-09T02:04:23.059Z,102363.78
2022-08-09T02:07:18.415Z,102370.84
2022-08-09T02:10:08.904Z,102366.56
2022-08-09T02:12:37.763Z,102368.38
2022-08-09T02:15:15.449Z,102363.22
2022-08-09T02:18:00.425Z,102366.75
2022-08-09T02:20:38.401Z,102365.91
2022-08-09T02:23:12.221Z,102363.34
2022-08-09T02:25:55.591Z,102362.56
2022-08-09T02:28:30.359Z,102359.09
2022-08-09T02:31:07.558Z,102357.38
2022-08-09T02:34:07.230Z,102360.06
2022-08-09T02:36:31.989Z,102357.53
2022-08-09T02:39:14.343Z,102352.28
2022-08-09T02:41:56.229Z,102346.28
2022-08-09T02:44:29.292Z,102348.03
2022-08-09T02:47:02.200Z,102353.28
2022-08-09T02:49:40.974Z,102350.69
2022-08-09T02:52:13.636Z,102354.28
2022-08-09T02:54:51.214Z,102354.28
2022-08-09T02:57:25.157Z,102353.50
2022-08-09T03:00:21.298Z,102349.97
2022-08-09T03:03:00.415Z,102349.97
2022-08-09T03:05:34.258Z,102344.78
2022-08-09T03:08:04.721Z,102347.41
2022-08-09T03:10:32.994Z,102349.22
2022-08-09T03:13:00.989Z,102345.78
2022-08-09T03:16:04.345Z,102352.78
2022-08-09T03:18:19.172Z,102347.59
2022-08-09T03:21:00.277Z,102353.75
2022-08-09T03:23:28.483Z,102346.81
2022-08-09T03:26:02.100Z,102342.50
2022-08-09T03:28:32.913Z,102352.19
2022-08-09T03:31:09.912Z,102354.81
2022-08-09T03:33:54.233Z,102347.94
2022-08-09T03:36:27.599Z,102348.84
2022-08-09T03:38:56.297Z,102352.31
2022-08-09T03:41:29.903Z,102348.06
2022-08-09T03:44:12.116Z,102354.19
2022-08-09T03:46:39.423Z,102344.66
2022-08-09T03:49:08.267Z,102354.25
2022-08-09T03:51:55.142Z,102356.06
2022-08-09T03:54:29.471Z,102354.31
2022-08-09T03:57:00.261Z,102351.75
2022-08-09T03:59:53.801Z,102350.84
2022-08-09T04:02:14.734Z,102355.28
2022-08-09T04:04:47.979Z,102357.13
2022-08-09T04:07:18.157Z,102359.78
2022-08-09T04:09:50.315Z,102356.31
2022-08-09T04:12:38.034Z,102364.22
2022-08-09T04:15:17.257Z,102359.03
2022-08-09T04:17:57.705Z,102361.72
2022-08-09T04:20:24.897Z,102360.03
2022-08-09T04:22:52.978Z,102360.88
2022-08-09T04:25:21.175Z,102365.31
2022-08-09T04:27:49.438Z,102367.88
2022-08-09T04:30:23.226Z,102372.25
2022-08-09T04:32:51.557Z,102379.25
2022-08-09T04:35:21.727Z,102374.06
2022-08-09T04:37:49.795Z,102381.88
2022-08-09T04:40:28.503Z,102374.94
2022-08-09T04:43:04.026Z,102377.56
2022-08-09T04:45:42.980Z,102376.66
2022-08-09T04:48:19.503Z,102391.47
2022-08-09T04:50:46.568Z,102388.91
2022-08-09T04:53:17.156Z,102392.44
2022-08-09T04:55:58.048Z,102390.72
2022-08-09T04:58:31.827Z,102395.97
2022-08-09T05:01:01.382Z,102403.81
2022-08-09T05:03:43.266Z,102389.94
2022-08-09T05:06:11.901Z,102403.06
2022-08-09T05:08:49.096Z,102408.25
2022-08-09T05:11:16.516Z,102408.38
2022-08-09T05:13:43.798Z,102414.41
2022-08-09T05:16:10.919Z,102405.69
2022-08-09T05:18:57.427Z,102410.06
2022-08-09T05:21:30.522Z,102410.06
2022-08-09T05:24:04.643Z,102416.16
2022-08-09T05:26:41.095Z,102418.81
2022-08-09T05:29:31.149Z,102410.97
2022-08-09T05:32:02.252Z,102419.69
2022-08-09T05:34:32.554Z,102422.25
2022-08-09T05:37:06.704Z,102422.22
2022-08-09T05:39:43.289Z,102416.97
2022-08-09T05:42:18.004Z,102415.94
2022-08-09T05:44:52.525Z,102414.19
2022-08-09T05:47:23.862Z,102408.94
2022-08-09T05:50:23.785Z,102414.06
2022-08-09T05:52:41.770Z,102421.00
2022-08-09T05:55:20.536Z,102414.91
2022-08-09T05:57:51.036Z,102413.94
2022-08-09T06:00:23.581Z,102423.44
2022-08-09T06:02:54.156Z,102425.09
2022-08-09T06:05:30.385Z,102420.63
2022-08-09T06:08:05.444Z,102429.25
2022-08-09T06:10:40.731Z,102418.69
2022-08-09T06:13:18.411Z,102420.31
2022-08-09T06:15:46.890Z,102428.00
2022-08-09T06:18:15.828Z,102430.53
2022-08-09T06:20:54.211Z,102420.84
2022-08-09T06:23:23.032Z,102432.91
2022-08-09T06:26:10.026Z,102425.84
2022-08-09T06:28:36.898Z,102423.94
2022-08-09T06:31:04.161Z,102425.56
2022-08-09T06:33:41.476Z,102428.06
2022-08-09T06:36:11.991Z,102421.81
2022-08-09T06:38:42.985Z,102430.34
2022-08-09T06:41:18.709Z,102424.06
2022-08-09T06:43:48.703Z,102433.47
2022-08-09T06:46:40.017Z,102431.59
2022-08-09T06:49:03.715Z,102429.72
2022-08-09T06:51:33.681Z,102426.94
2022-08-09T06:54:07.005Z,102421.56
2022-08-09T06:56:46.284Z,102432.66
2022-08-09T07:00:49.067Z,102432.53
2022-08-09T07:02:04.340Z,102431.44
2022-08-09T07:04:32.631Z,102428.50
2022-08-09T07:07:00.946Z,102430.91
2022-08-09T07:09:57.412Z,102439.50
2022-08-09T07:12:38.090Z,102422.72
2022-08-09T07:15:53.944Z,102422.41
2022-08-09T07:17:56.297Z,102424.75
2022-08-09T07:20:29.428Z,102425.38
2022-08-09T07:22:56.706Z,102428.66
2022-08-09T07:25:25.796Z,102420.53
2022-08-09T07:27:55.951Z,102422.03
2022-08-09T07:30:25.115Z,102421.00
2022-08-09T07:32:53.306Z,102431.19
2022-08-09T07:35:22.573Z,102424.81
2022-08-09T07:37:50.615Z,102415.88
2022-08-09T07:40:46.433Z,102424.38
2022-08-09T07:43:17.223Z,102426.78
2022-08-09T07:45:44.585Z,102422.94
2022-08-09T07:48:25.742Z,102427.16
2022-08-09T07:51:09.369Z,102428.47
2022-08-09T07:54:05.540Z,102430.03
2022-08-09T07:56:35.988Z,102415.66
2022-08-09T07:59:12.507Z,102424.16
2022-08-09T08:01:43.854Z,102420.41
2022-08-09T08:04:25.603Z,102426.19
2022-08-09T08:07:14.972Z,102425.06
2022-08-09T08:09:53.498Z,102438.72
2022-08-09T08:12:32.207Z,102431.34
2022-08-09T08:14:59.754Z,102430.16
2022-08-09T08:17:54.133Z,102430.84
2022-08-09T08:20:15.263Z,102431.44
2022-08-09T08:22:42.143Z,102428.44
2022-08-09T08:25:13.618Z,102438.53
2022-08-09T08:27:43.351Z,102432.91
2022-08-09T08:30:20.584Z,102439.66
2022-08-09T08:32:53.933Z,102430.56
2022-08-09T08:35:22.468Z,102429.25
2022-08-09T08:38:01.817Z,102434.25
2022-08-09T08:40:33.585Z,102441.81
2022-08-09T08:43:03.192Z,102442.56
2022-08-09T08:45:51.498Z,102436.13
2022-08-09T08:48:29.116Z,102442.81
2022-08-09T08:50:58.802Z,102443.34
2022-08-09T08:53:32.218Z,102430.78
2022-08-09T08:56:06.460Z,102428.53
2022-08-09T08:58:36.220Z,102431.72
2022-08-09T09:01:08.915Z,102429.56
2022-08-09T09:03:50.412Z,102444.03
2022-08-09T09:06:19.591Z,102438.34
2022-08-09T09:08:52.479Z,102440.50
2022-08-09T09:11:20.594Z,102439.25
2022-08-09T09:13:57.482Z,102431.91
2022-08-09T09:16:33.721Z,102431.50
2022-08-09T09:22:15.732Z,102434.28
2022-08-09T09:24:59.122Z,102440.00
2022-08-09T09:28:06.448Z,102437.97
2022-08-09T09:30:40.074Z,102440.28
2022-08-09T09:33:20.445Z,102439.91
2022-08-09T09:36:02.321Z,102432.56
2022-08-09T09:38:41.456Z,102432.16
2022-08-09T09:41:10.806Z,102427.44
2022-08-09T09:43:41.054Z,102429.69
2022-08-09T09:48:57.938Z,102424.75
2022-08-09T09:51:38.190Z,102433.09
2022-08-09T09:54:20.446Z,102435.44
2022-08-09T09:58:01.711Z,102436.94
2022-08-09T09:59:37.604Z,102438.19
2022-08-09T10:02:06.675Z,102440.44
2022-08-09T10:04:34.975Z,102434.00
2022-08-09T10:07:10.012Z,102424.03
2022-08-09T10:09:48.995Z,102436.81
2022-08-09T10:12:43.832Z,102433.91
2022-08-09T10:15:51.084Z,102430.88
2022-08-09T10:18:11.629Z,102423.41
2022-08-09T10:20:45.224Z,102429.41
2022-08-09T10:23:20.979Z,102413.00
2022-08-09T10:26:06.307Z,102417.09
2022-08-09T10:28:38.594Z,102411.47
2022-08-09T10:34:09.867Z,102410.78
2022-08-09T10:36:43.594Z,102414.81
2022-08-09T10:39:15.688Z,102415.66
2022-08-09T10:41:46.033Z,102415.31
2022-08-09T10:44:21.666Z,102424.72
2022-08-09T10:47:00.712Z,102420.88
2022-08-09T10:50:06.855Z,102407.19
2022-08-09T10:53:12.251Z,102420.13
2022-08-09T10:55:58.684Z,102411.91
2022-08-09T10:58:32.491Z,102409.91
2022-08-09T11:03:01.678Z,102407.06
2022-08-09T11:04:27.755Z,102412.78
2022-08-09T11:06:59.899Z,102409.03
2022-08-09T11:09:47.709Z,102414.00
2022-08-09T11:12:26.577Z,102411.91
2022-08-09T11:15:01.549Z,102406.53
2022-08-09T11:17:31.722Z,102406.25
2022-08-09T11:20:22.697Z,102404.25
2022-08-09T11:22:55.368Z,102391.84
2022-08-09T11:25:47.793Z,102400.22
2022-08-09T11:28:34.558Z,102395.59
2022-08-09T11:31:49.333Z,102389.91
2022-08-09T11:34:33.296Z,102386.19
2022-08-09T11:37:07.533Z,102381.63
2022-08-09T11:40:04.822Z,102386.66
2022-08-09T11:42:50.750Z,102374.91
2022-08-09T11:45:43.512Z,102362.50
2022-08-09T11:48:26.212Z,102362.13
2022-08-09T11:52:36.728Z,102371.53
2022-08-09T11:53:59.760Z,102374.00
2022-08-09T11:56:41.363Z,102365.84
2022-08-09T11:59:12.169Z,102370.97
2022-08-09T12:02:17.426Z,102360.91
2022-08-09T12:04:32.391Z,102361.66
2022-08-09T12:07:07.816Z,102357.13
2022-08-09T12:09:36.198Z,102354.16
2022-08-09T12:12:13.196Z,102354.09
2022-08-09T12:15:07.450Z,102357.41
2022-08-09T12:17:43.378Z,102358.16
2022-08-09T12:20:22.231Z,102347.53
2022-08-09T12:22:56.302Z,102358.81
2022-08-09T12:25:31.963Z,102352.66
2022-08-09T12:29:14.547Z,102346.34
2022-08-09T12:31:02.894Z,102345.44
2022-08-09T12:33:58.492Z,102341.03
2022-08-09T12:36:33.685Z,102346.34
2022-08-09T12:39:01.698Z,102340.22
2022-08-09T12:41:39.667Z,102343.84
2022-08-09T12:44:08.613Z,102334.06
2022-08-09T12:46:48.846Z,102333.06
2022-08-09T12:49:18.073Z,102334.91
2022-08-09T12:52:02.343Z,102326.94
2022-08-09T12:56:11.592Z,102321.47
2022-08-09T12:57:46.520Z,102317.84
2022-08-09T13:00:17.797Z,102323.09
2022-08-09T13:03:00.119Z,102311.50
2022-08-09T13:05:51.806Z,102320.22
2022-08-09T13:08:39.775Z,102316.53
2022-08-09T13:11:23.315Z,102314.72
2022-08-09T13:14:37.239Z,102317.19
2022-08-09T13:16:56.476Z,102311.88
2022-08-09T13:20:09.679Z,102303.91
2022-08-09T13:22:37.409Z,102308.16
2022-08-09T13:25:14.382Z,102302.84
2022-08-09T13:27:55.013Z,102293.16
2022-08-09T13:30:50.035Z,102289.66
2022-08-09T13:33:22.480Z,102288.59
2022-08-09T13:36:38.383Z,102293.94
2022-08-09T13:38:58.024Z,102283.94
2022-08-09T13:41:58.761Z,102284.03
2022-08-09T13:44:13.539Z,102282.97
2022-08-09T13:47:17.987Z,102276.81
2022-08-09T13:49:37.861Z,102278.72
2022-08-09T13:52:09.399Z,102272.47
2022-08-09T13:54:41.718Z,102274.16
2022-08-09T13:57:14.504Z,102267.16
2022-08-09T13:59:58.153Z,102273.00
2022-08-09T14:02:25.354Z,102270.16
2022-08-09T14:05:00.034Z,102274.41
2022-08-09T14:07:30.352Z,102274.31
2022-08-09T14:10:17.152Z,102280.28
2022-08-09T14:12:56.590Z,102279.34
2022-08-09T14:16:09.148Z,102273.38
2022-08-09T14:18:19.700Z,102265.38
2022-08-09T14:20:48.765Z,102267.00
2022-08-09T14:23:22.764Z,102274.66
2022-08-09T14:26:05.882Z,102261.47
2022-08-09T14:28:33.928Z,102271.91
2022-08-09T14:31:00.964Z,102259.59
2022-08-09T14:33:28.000Z,102253.19
2022-08-09T14:35:56.326Z,102254.06
2022-08-09T14:38:23.356Z,102260.03
2022-08-09T14:41:02.280Z,102266.09
2022-08-09T14:43:46.992Z,102261.53
2022-08-09T14:46:55.886Z,102254.31
2022-08-09T14:49:02.758Z,102259.63
2022-08-09T14:51:31.359Z,102256.97
2022-08-09T14:54:09.840Z,102259.63
2022-08-09T14:56:58.178Z,102253.34
2022-08-09T14:59:23.934Z,102246.22
2022-08-09T15:01:50.917Z,102250.44
2022-08-09T15:04:18.802Z,102249.34
2022-08-09T15:06:49.713Z,102249.25
2022-08-09T15:10:03.988Z,102242.97
2022-08-09T15:12:05.305Z,102242.69
2022-08-09T15:14:38.657Z,102240.75
2022-08-09T15:17:09.672Z,102238.84
2022-08-09T15:19:37.162Z,102243.97
2022-08-09T15:22:26.134Z,102250.13
2022-08-09T15:25:00.062Z,102249.16
2022-08-09T15:27:31.362Z,102246.41
2022-08-09T15:30:59.059Z,102242.69
2022-08-09T15:33:07.404Z,102241.66
2022-08-09T15:35:40.675Z,102237.19
2022-08-09T15:38:16.603Z,102243.34
2022-08-09T15:40:44.359Z,102244.19
2022-08-09T15:43:14.034Z,102235.38
2022-08-09T15:46:07.439Z,102237.91
2022-08-09T15:48:30.789Z,102224.50
2022-08-09T15:51:02.469Z,102232.38
2022-08-09T15:54:04.527Z,102233.25
2022-08-09T15:56:35.238Z,102228.78
2022-08-09T15:59:02.749Z,102230.47
2022-08-09T16:01:31.434Z,102215.34
2022-08-09T16:04:03.070Z,102209.94
2022-08-09T16:06:35.798Z,102215.25
2022-08-09T16:09:07.764Z,102220.38
2022-08-09T16:11:34.860Z,102214.94
2022-08-09T16:14:07.964Z,102216.66
2022-08-09T16:16:37.374Z,102207.69
2022-08-09T16:19:06.199Z,102212.91
2022-08-09T16:21:35.845Z,102211.00
2022-08-09T16:24:20.136Z,102208.25
2022-08-09T16:26:56.746Z,102209.94
2022-08-09T16:29:37.040Z,102204.63
2022-08-09T16:32:18.924Z,102206.31
2022-08-09T16:34:56.520Z,102208.03
2022-08-09T16:37:54.550Z,102213.25
2022-08-09T16:40:29.472Z,102208.88
2022-08-09T16:43:02.455Z,102206.22
2022-08-09T16:45:29.626Z,102210.78
2022-08-09T16:48:40.064Z,102208.25
2022-08-09T16:50:59.184Z,102204.84
2022-08-09T16:53:33.991Z,102204.84
2022-08-09T16:56:07.591Z,102213.78
2022-08-09T16:58:42.605Z,102211.22
2022-08-09T17:01:19.495Z,102204.41
2022-08-09T17:03:50.775Z,102212.38
2022-08-09T17:06:31.753Z,102206.44
2022-08-09T17:09:43.629Z,102211.00
2022-08-09T17:11:52.490Z,102211.97
2022-08-09T17:14:27.108Z,102210.56
2022-08-09T17:17:00.039Z,102209.72
2022-08-09T17:19:47.129Z,102216.94
2022-08-09T17:22:24.880Z,102217.78
2022-08-09T17:25:04.671Z,102211.63
2022-08-09T17:27:38.767Z,102210.03
2022-08-09T17:30:12.803Z,102214.59
2022-08-09T17:32:45.446Z,102213.22
2022-08-09T17:35:14.593Z,102215.13
2022-08-09T17:38:10.142Z,102215.53
2022-08-09T17:40:34.656Z,102213.38
2022-08-09T17:43:32.148Z,102219.81
2022-08-09T17:46:02.741Z,102219.38
2022-08-09T17:48:39.823Z,102230.22
2022-08-09T17:51:18.027Z,102228.94
2022-08-09T17:53:51.546Z,102232.72
2022-08-09T17:56:35.910Z,102230.28
2022-08-09T17:59:11.571Z,102240.38
2022-08-09T18:02:06.823Z,102231.75
2022-08-09T18:04:27.156Z,102238.19
2022-08-09T18:06:55.807Z,102240.53
2022-08-09T18:09:40.445Z,102242.41
2022-08-09T18:12:19.712Z,102240.13
2022-08-09T18:14:53.721Z,102249.25
2022-08-09T18:17:27.161Z,102248.78
2022-08-09T18:20:59.614Z,102246.72
2022-08-09T18:23:05.002Z,102248.97
2022-08-09T18:25:50.943Z,102252.59
2022-08-09T18:30:40.267Z,102253.63
2022-08-09T18:31:25.009Z,102254.88
2022-08-09T18:33:59.988Z,102260.56
2022-08-09T18:36:32.569Z,102254.78
2022-08-09T18:39:05.873Z,102261.13
2022-08-09T18:41:35.940Z,102263.00
2022-08-09T18:44:12.566Z,102263.16
2022-08-09T18:46:47.709Z,102267.06
2022-08-09T18:49:27.638Z,102267.53
2022-08-09T18:51:59.417Z,102268.00
2022-08-09T18:54:29.407Z,102264.84
2022-08-09T18:57:06.465Z,102277.53
2022-08-09T18:59:48.550Z,102273.56
2022-08-09T19:02:18.411Z,102282.06
2022-08-09T19:04:47.377Z,102279.84
2022-08-09T19:07:16.275Z,102285.56
2022-08-09T19:10:14.097Z,102291.41
2022-08-09T19:12:32.269Z,102291.84
2022-08-09T19:15:04.580Z,102284.41
2022-08-09T19:17:39.767Z,102292.88
2022-08-09T19:20:22.733Z,102294.25
2022-08-09T19:22:50.418Z,102306.91
2022-08-09T19:25:42.626Z,102302.81
2022-08-09T19:28:08.851Z,102303.19
2022-08-09T19:30:44.317Z,102301.06
2022-08-09T19:33:19.504Z,102312.91
2022-08-09T19:35:58.180Z,102305.31
2022-08-09T19:38:27.728Z,102307.69
2022-08-09T19:40:59.786Z,102307.06
2022-08-09T19:44:00.735Z,102313.63
2022-08-09T19:46:17.181Z,102308.66
2022-08-09T19:50:07.564Z,102312.38
2022-08-09T19:51:55.730Z,102304.84
2022-08-09T19:54:25.111Z,102309.50
2022-08-09T19:56:53.495Z,102316.84
2022-08-09T19:59:58.481Z,102308.44
2022-08-09T20:02:17.132Z,102303.53
2022-08-09T20:04:55.601Z,102315.31
2022-08-09T20:07:23.270Z,102310.22
2022-08-09T20:09:50.261Z,102317.53
2022-08-09T20:12:30.268Z,102317.78
2022-08-09T20:16:31.892Z,102318.78
2022-08-09T20:17:54.399Z,102318.06
2022-08-09T20:20:22.291Z,102321.09
2022-08-09T20:22:56.063Z,102315.94
2022-08-09T20:25:24.148Z,102323.09
2022-08-09T20:27:52.422Z,102322.38
2022-08-09T20:30:21.805Z,102313.81
2022-08-09T20:32:52.299Z,102314.97
2022-08-09T20:35:24.424Z,102325.84
2022-08-09T20:38:21.017Z,102325.97
2022-08-09T20:40:38.641Z,102320.84
2022-08-09T20:43:19.158Z,102322.78
2022-08-09T20:45:59.591Z,102330.94
2022-08-09T20:48:31.320Z,102328.59
2022-08-09T20:51:00.948Z,102318.16
2022-08-09T20:53:36.992Z,102320.00
2022-08-09T20:56:09.041Z,102327.16
2022-08-09T20:58:36.533Z,102318.66
2022-08-09T21:01:32.578Z,102321.41
2022-08-09T21:05:49.870Z,102312.91
2022-08-09T21:06:42.666Z,102311.50
2022-08-09T21:09:14.253Z,102317.84
2022-08-09T21:14:31.631Z,102314.03
2022-08-09T21:17:00.473Z,102318.69
2022-08-09T21:20:19.524Z,102318.03
2022-08-09T21:22:36.126Z,102313.03
2022-08-09T21:25:21.120Z,102315.09
2022-08-09T21:27:51.001Z,102317.06
2022-08-09T21:30:22.199Z,102318.19
2022-08-09T21:32:50.482Z,102311.38
2022-08-09T21:35:17.881Z,102315.06
2022-08-09T21:37:59.193Z,102304.78
2022-08-09T21:40:30.463Z,102316.31
2022-08-09T21:43:01.479Z,102321.00
2022-08-09T21:45:28.609Z,102318.38
2022-08-09T21:47:58.736Z,102318.59
2022-08-09T21:50:38.471Z,102324.88
2022-08-09T21:53:23.911Z,102328.47
2022-08-09T21:55:55.061Z,102334.72
2022-08-09T21:58:30.961Z,102340.13
2022-08-09T22:00:58.779Z,102340.25
2022-08-09T22:03:26.269Z,102340.31
2022-08-09T22:05:54.835Z,102342.28
2022-08-09T22:08:25.607Z,102346.72
2022-08-09T22:11:00.946Z,102346.88
2022-08-09T22:13:43.192Z,102350.53
2022-08-09T22:16:12.031Z,102346.34
2022-08-09T22:18:53.904Z,102347.38
2022-08-09T22:21:44.618Z,102350.19
2022-08-09T22:24:17.239Z,102347.66
2022-08-09T22:26:51.574Z,102348.66
2022-08-09T22:29:24.033Z,102354.13
2022-08-09T22:31:56.231Z,102345.53
2022-08-09T22:34:27.822Z,102351.78
2022-08-09T22:36:57.298Z,102358.09
2022-08-09T22:39:55.864Z,102352.13
2022-08-09T22:42:20.885Z,102355.75
2022-08-09T22:45:02.329Z,102353.31
2022-08-09T22:48:12.783Z,102357.88
2022-08-09T22:50:29.829Z,102355.44
2022-08-09T22:52:58.491Z,102352.19
2022-08-09T22:55:39.774Z,102354.81
2022-08-09T22:58:32.689Z,102356.75
2022-08-09T23:01:05.994Z,102352.53
2022-08-09T23:04:04.452Z,102356.13
2022-08-09T23:06:35.047Z,102354.53
2022-08-09T23:09:06.925Z,102342.22
2022-08-09T23:11:34.413Z,102351.94
2022-08-09T23:14:03.033Z,102350.25
2022-08-09T23:16:30.348Z,102356.38
2022-08-09T23:18:57.358Z,102358.22
2022-08-09T23:21:29.949Z,102353.94
2022-08-09T23:24:06.077Z,102355.75
2022-08-09T23:26:37.985Z,102350.59
2022-08-09T23:29:13.864Z,102347.22
2022-08-09T23:31:41.852Z,102349.97
2022-08-09T23:34:09.172Z,102348.28
2022-08-09T23:36:36.794Z,102346.63
2022-08-09T23:39:06.143Z,102347.56
2022-08-09T23:41:33.555Z,102340.69
2022-08-09T23:44:01.759Z,102343.38
2022-08-09T23:46:30.429Z,102347.84
2022-08-09T23:48:58.558Z,102336.56
2022-08-09T23:51:26.203Z,102348.00
2022-08-09T23:53:55.123Z,102350.72
2022-08-09T23:56:53.399Z,102337.69
2022-08-09T23:59:10.437Z,102348.28
